Time;durP1;ratioP1;P1;durP2;ratioP2;P2;SDS_P1;SDS_P2;PMS_P1;PMS_P2;Temp;Humidity;BMP_temperature;BMP_pressure;BME280_temperature;BME280_humidity;BME280_pressure;Samples;Min_cycle;Max_cycle;Signal;HPM_P1;HPM_P2
2023/08/22 00:00:50;;;;;;;4.80;4.40;;;21.50;99.90;;;;;;5052295;28;20056;-80
2023/08/22 00:03:16;;;;;;;4.85;4.35;;;21.70;99.90;;;;;;5052642;28;20036;-81
2023/08/22 00:05:42;;;;;;;8.40;5.28;;;21.50;99.90;;;;;;5051551;28;20392;-80
2023/08/22 00:08:08;;;;;;;6.22;4.30;;;21.50;99.90;;;;;;5052633;28;20028;-81
2023/08/22 00:10:34;;;;;;;8.25;4.60;;;21.70;99.90;;;;;;5052484;28;20052;-81
2023/08/22 00:13:00;;;;;;;5.15;4.63;;;21.60;99.90;;;;;;5051435;28;20531;-81
2023/08/22 00:15:26;;;;;;;5.88;4.47;;;21.50;99.90;;;;;;5051793;28;20036;-81
2023/08/22 00:17:51;;;;;;;10.68;5.20;;;21.50;99.90;;;;;;5051987;28;20028;-81
2023/08/22 00:20:18;;;;;;;6.57;4.90;;;21.50;99.90;;;;;;5051577;28;20392;-81
2023/08/22 00:22:44;;;;;;;8.32;4.88;;;22.00;99.90;;;;;;5052233;28;20025;-80
2023/08/22 00:25:10;;;;;;;7.82;5.20;;;21.50;99.90;;;;;;5052565;28;20035;-80
2023/08/22 00:27:36;;;;;;;6.88;5.00;;;21.50;99.90;;;;;;5051677;28;20158;-80
2023/08/22 00:30:03;;;;;;;6.25;5.25;;;21.50;99.90;;;;;;5052363;28;20025;-80
2023/08/22 00:32:29;;;;;;;7.90;5.68;;;21.40;99.90;;;;;;5051287;28;20068;-80
2023/08/22 00:34:55;;;;;;;5.45;4.95;;;21.40;99.90;;;;;;5051893;28;20122;-81
2023/08/22 00:37:22;;;;;;;10.45;6.40;;;21.40;99.90;;;;;;5052626;28;20120;-81
2023/08/22 00:39:48;;;;;;;7.25;6.20;;;21.40;99.90;;;;;;5051495;28;20155;-80
2023/08/22 00:42:13;;;;;;;9.43;6.00;;;21.40;99.90;;;;;;5052296;28;20029;-81
2023/08/22 00:44:39;;;;;;;9.63;7.20;;;21.30;99.90;;;;;;5052044;28;20032;-81
2023/08/22 00:47:05;;;;;;;9.63;6.03;;;21.20;99.90;;;;;;5051523;28;20027;-80
2023/08/22 00:49:31;;;;;;;6.75;5.47;;;21.40;99.90;;;;;;5051944;28;20025;-80
2023/08/22 00:51:59;;;;;;;7.68;5.80;;;21.30;99.90;;;;;;5052499;28;20032;-81
2023/08/22 00:54:29;;;;;;;8.43;5.85;;;21.30;99.90;;;;;;5051713;28;20039;-81
2023/08/22 00:56:56;;;;;;;9.32;5.97;;;21.30;99.90;;;;;;5052146;28;20388;-80
2023/08/22 00:59:25;;;;;;;11.00;7.13;;;21.30;99.90;;;;;;5052519;28;20115;-80
2023/08/22 01:01:51;;;;;;;8.68;6.28;;;21.20;99.90;;;;;;5050989;28;20031;-80
2023/08/22 01:04:17;;;;;;;8.35;5.22;;;21.70;99.90;;;;;;5052316;28;20029;-80
2023/08/22 01:07:05;;;;;;;7.50;5.82;;;21.30;99.90;;;;;;5051981;28;20118;-81
2023/08/22 01:09:39;;;;;;;9.15;6.25;;;21.30;99.90;;;;;;5051105;28;20029;-80
2023/08/22 01:12:30;;;;;;;7.47;5.47;;;21.20;99.90;;;;;;5051950;28;20025;-80
2023/08/22 01:15:12;;;;;;;11.55;6.85;;;21.20;99.90;;;;;;5051441;28;20045;-81
2023/08/22 01:17:39;;;;;;;10.65;7.38;;;21.20;99.90;;;;;;5051776;28;20037;-81
2023/08/22 01:20:11;;;;;;;7.93;6.75;;;21.10;99.90;;;;;;5052187;28;20135;-81
2023/08/22 01:22:37;;;;;;;8.52;6.82;;;21.10;99.90;;;;;;5051080;28;20029;-81
2023/08/22 01:25:03;;;;;;;8.68;6.25;;;21.10;99.90;;;;;;5051809;28;20021;-80
2023/08/22 01:27:35;;;;;;;10.27;7.05;;;21.10;99.90;;;;;;5054873;28;20033;-80
2023/08/22 01:30:10;;;;;;;10.00;7.45;;;21.00;99.90;;;;;;5055186;28;20033;-80
2023/08/22 01:32:43;;;;;;;8.98;7.03;;;21.10;99.90;;;;;;5070279;28;20049;-79
2023/08/22 01:35:13;;;;;;;7.53;6.60;;;21.00;99.90;;;;;;5057446;28;20067;-82
2023/08/22 01:37:40;;;;;;;9.02;6.57;;;21.00;99.90;;;;;;5054899;28;20044;-82
2023/08/22 01:40:07;;;;;;;11.73;7.90;;;21.10;99.90;;;;;;5055348;28;20033;-82
2023/08/22 01:42:33;;;;;;;10.43;6.72;;;21.00;99.90;;;;;;5055100;28;20032;-81
2023/08/22 01:44:59;;;;;;;13.52;7.13;;;21.00;99.90;;;;;;5054474;28;20377;-82
2023/08/22 01:47:24;;;;;;;11.45;6.93;;;21.00;99.90;;;;;;5055087;28;20040;-82
2023/08/22 01:49:50;;;;;;;8.55;6.78;;;21.00;99.90;;;;;;5053993;28;20018;-82
2023/08/22 01:52:15;;;;;;;7.70;6.03;;;21.40;99.90;;;;;;5055406;28;20052;-82
2023/08/22 01:54:41;;;;;;;12.32;6.63;;;21.00;99.90;;;;;;5054755;28;20033;-82
2023/08/22 01:57:06;;;;;;;8.20;6.05;;;21.30;99.90;;;;;;5054431;28;20021;-81
2023/08/22 01:59:32;;;;;;;8.68;6.68;;;21.00;99.90;;;;;;5054919;28;20078;-82
2023/08/22 02:01:58;;;;;;;12.77;6.18;;;21.00;99.90;;;;;;5054742;28;20021;-81
2023/08/22 02:04:23;;;;;;;9.40;6.60;;;21.00;99.90;;;;;;5054042;28;20395;-82
2023/08/22 02:06:49;;;;;;;8.27;5.97;;;21.00;99.90;;;;;;5054506;28;20079;-82
2023/08/22 02:09:14;;;;;;;10.20;6.00;;;21.00;99.90;;;;;;5054819;28;20025;-82
2023/08/22 02:11:40;;;;;;;9.73;6.40;;;20.90;99.90;;;;;;5053867;28;20017;-81
2023/08/22 02:14:06;;;;;;;7.68;5.57;;;21.00;99.90;;;;;;5054620;28;20124;-82
2023/08/22 02:16:33;;;;;;;6.07;5.50;;;21.10;99.90;;;;;;5054466;28;20101;-81
2023/08/22 02:18:59;;;;;;;8.27;6.63;;;21.00;99.90;;;;;;5053874;28;20115;-81
2023/08/22 02:21:24;;;;;;;9.23;5.43;;;21.10;99.90;;;;;;5054851;28;20052;-81
2023/08/22 02:23:50;;;;;;;5.28;4.78;;;21.00;99.90;;;;;;5054430;28;20496;-81
2023/08/22 02:26:16;;;;;;;6.47;5.07;;;21.00;99.90;;;;;;5053984;28;20036;-81
2023/08/22 02:28:41;;;;;;;7.53;6.10;;;20.90;99.90;;;;;;5054455;28;20024;-81
2023/08/22 02:31:07;;;;;;;7.72;5.55;;;20.90;99.90;;;;;;5054482;28;20384;-82
2023/08/22 02:33:32;;;;;;;10.82;6.50;;;20.90;99.90;;;;;;5053489;28;20140;-81
2023/08/22 02:35:58;;;;;;;8.60;6.13;;;20.90;99.90;;;;;;5054190;28;20023;-81
2023/08/22 02:38:24;;;;;;;8.27;5.80;;;20.80;99.90;;;;;;5053607;28;20048;-81
2023/08/22 02:40:49;;;;;;;6.07;5.30;;;20.80;99.90;;;;;;5053131;28;20498;-81
2023/08/22 02:43:15;;;;;;;5.90;4.68;;;20.80;99.90;;;;;;5054054;28;20032;-81
2023/08/22 02:45:43;;;;;;;9.63;5.20;;;20.70;99.90;;;;;;5053772;28;20031;-81
2023/08/22 02:48:09;;;;;;;8.40;4.93;;;21.00;99.90;;;;;;5052988;28;20025;-82
2023/08/22 02:50:34;;;;;;;6.05;5.10;;;21.40;99.90;;;;;;5053597;28;20024;-82
2023/08/22 02:53:00;;;;;;;6.32;5.72;;;20.80;99.90;;;;;;5053016;28;20032;-81
2023/08/22 02:55:25;;;;;;;6.88;6.18;;;20.70;99.90;;;;;;5054295;28;20473;-82
2023/08/22 02:57:51;;;;;;;5.70;5.10;;;20.70;99.90;;;;;;5054130;28;20024;-81
2023/08/22 03:00:18;;;;;;;7.68;5.45;;;20.70;99.90;;;;;;5053904;28;20037;-81
2023/08/22 03:02:43;;;;;;;8.05;5.20;;;20.60;99.90;;;;;;5071941;28;20033;-82
2023/08/22 03:05:13;;;;;;;6.55;5.10;;;20.60;99.90;;;;;;5055106;28;20139;-82
2023/08/22 03:07:39;;;;;;;7.05;5.57;;;20.70;99.90;;;;;;5052964;28;20032;-81
2023/08/22 03:10:07;;;;;;;5.97;4.72;;;20.60;99.90;;;;;;5053725;28;20460;-81
2023/08/22 03:12:33;;;;;;;6.78;4.80;;;20.60;99.90;;;;;;5053636;28;20061;-82
2023/08/22 03:14:59;;;;;;;5.95;4.38;;;20.60;99.90;;;;;;5052732;28;20025;-82
2023/08/22 03:17:24;;;;;;;7.90;4.32;;;20.60;99.90;;;;;;5053494;28;20492;-82
2023/08/22 03:19:50;;;;;;;4.45;3.90;;;20.50;99.90;;;;;;5053186;28;20024;-82
2023/08/22 03:22:16;;;;;;;5.97;3.83;;;20.70;99.90;;;;;;5052551;28;20032;-81
2023/08/22 03:24:42;;;;;;;4.80;3.97;;;20.60;99.90;;;;;;5053154;28;20075;-81
2023/08/22 03:27:08;;;;;;;7.32;4.90;;;20.50;99.90;;;;;;5053294;28;20381;-81
2023/08/22 03:29:33;;;;;;;6.03;4.50;;;20.80;99.90;;;;;;5052688;28;20023;-81
2023/08/22 03:31:59;;;;;;;8.15;4.63;;;20.50;99.90;;;;;;5052945;28;20049;-81
2023/08/22 03:34:24;;;;;;;5.55;4.10;;;20.80;99.90;;;;;;5053257;28;20047;-81
2023/08/22 03:36:50;;;;;;;6.15;4.63;;;20.50;99.90;;;;;;5052303;28;20477;-81
2023/08/22 03:39:15;;;;;;;5.78;4.15;;;20.40;99.90;;;;;;5053242;28;20025;-82
2023/08/22 03:41:41;;;;;;;7.70;4.70;;;20.50;99.90;;;;;;5052710;28;20021;-81
2023/08/22 03:44:06;;;;;;;6.20;4.30;;;20.40;99.90;;;;;;5052183;28;20027;-81
2023/08/22 03:46:32;;;;;;;7.30;5.53;;;20.50;99.90;;;;;;5052646;28;20380;-82
2023/08/22 03:48:57;;;;;;;7.68;4.97;;;20.40;99.90;;;;;;5052533;28;20056;-82
2023/08/22 03:51:23;;;;;;;10.38;6.53;;;20.30;99.90;;;;;;5051513;28;20029;-82
2023/08/22 03:53:49;;;;;;;8.43;5.68;;;20.40;99.90;;;;;;5053087;28;20029;-81
2023/08/22 03:56:15;;;;;;;11.25;6.97;;;20.70;99.90;;;;;;5052375;28;20085;-81
2023/08/22 03:58:41;;;;;;;9.38;6.38;;;20.40;99.90;;;;;;5052394;28;20033;-82
2023/08/22 04:01:06;;;;;;;7.55;6.70;;;21.30;99.90;;;;;;5052583;28;20100;-81
2023/08/22 04:03:32;;;;;;;12.35;7.47;;;20.40;99.90;;;;;;5052042;28;20075;-81
2023/08/22 04:05:59;;;;;;;8.35;6.75;;;20.50;99.90;;;;;;5052560;28;20532;-82
2023/08/22 04:08:25;;;;;;;13.95;7.07;;;20.40;99.90;;;;;;5052639;28;20028;-81
2023/08/22 04:10:52;;;;;;;10.98;7.78;;;20.30;99.90;;;;;;5051485;28;20151;-81
2023/08/22 04:13:18;;;;;;;13.27;7.53;;;20.30;99.90;;;;;;5052364;28;20037;-81
2023/08/22 04:15:43;;;;;;;9.43;7.70;;;20.30;99.90;;;;;;5052052;28;20392;-81
2023/08/22 04:18:09;;;;;;;12.27;7.18;;;20.40;99.90;;;;;;5052317;28;20033;-81
2023/08/22 04:20:34;;;;;;;10.35;7.50;;;20.30;99.90;;;;;;5052540;28;20469;-81
2023/08/22 04:23:00;;;;;;;13.35;8.68;;;20.30;99.90;;;;;;5052618;28;20083;-81
2023/08/22 04:25:26;;;;;;;8.38;7.13;;;20.30;99.90;;;;;;5051805;28;20021;-81
2023/08/22 04:27:52;;;;;;;10.35;7.88;;;20.20;99.90;;;;;;5052236;28;20112;-81
2023/08/22 04:30:17;;;;;;;12.80;8.15;;;20.10;99.90;;;;;;5052332;28;20116;-81
2023/08/22 04:32:44;;;;;;;12.10;7.95;;;20.20;99.90;;;;;;5051175;28;20374;-81
2023/08/22 04:35:09;;;;;;;11.02;7.47;;;20.20;99.90;;;;;;5052546;28;20045;-81
2023/08/22 04:37:35;;;;;;;8.07;6.45;;;20.00;99.90;;;;;;5051993;28;20064;-81
2023/08/22 04:40:00;;;;;;;11.02;6.72;;;20.10;99.90;;;;;;5051843;28;20075;-81
2023/08/22 04:42:26;;;;;;;8.80;6.15;;;20.80;99.90;;;;;;5052243;28;20075;-81
2023/08/22 04:44:52;;;;;;;8.00;6.10;;;20.20;99.90;;;;;;5055355;28;20029;-80
2023/08/22 04:47:17;;;;;;;9.70;6.20;;;20.10;99.90;;;;;;5065537;28;20436;-82
2023/08/22 04:49:43;;;;;;;6.78;6.13;;;20.20;99.90;;;;;;5053036;28;20037;-82
2023/08/22 04:52:09;;;;;;;11.00;6.85;;;20.70;99.90;;;;;;5052033;28;20047;-81
2023/08/22 04:54:34;;;;;;;11.02;7.53;;;20.10;99.90;;;;;;5051111;28;20037;-82
2023/08/22 04:57:00;;;;;;;10.20;6.88;;;20.10;99.90;;;;;;5052107;28;20527;-81
2023/08/22 04:59:26;;;;;;;10.55;7.68;;;20.30;99.90;;;;;;5051955;28;20060;-81
2023/08/22 05:01:52;;;;;;;9.85;6.75;;;20.00;99.90;;;;;;5053026;28;20048;-82
2023/08/22 05:04:17;;;;;;;11.45;6.28;;;20.00;99.90;;;;;;5056032;28;20492;-82
2023/08/22 05:06:43;;;;;;;8.65;5.88;;;20.10;99.90;;;;;;5054994;28;20028;-81
2023/08/22 05:09:12;;;;;;;8.20;5.68;;;20.10;99.90;;;;;;5055881;28;20104;-81
2023/08/22 05:11:37;;;;;;;8.27;6.20;;;20.10;99.90;;;;;;5055576;28;20024;-81
2023/08/22 05:14:03;;;;;;;15.18;6.95;;;20.10;99.90;;;;;;5055329;28;20477;-81
2023/08/22 05:16:29;;;;;;;8.20;7.13;;;20.10;99.90;;;;;;5055622;28;20484;-82
2023/08/22 05:18:55;;;;;;;10.27;7.28;;;20.10;99.90;;;;;;5055786;28;20110;-82
2023/08/22 05:21:21;;;;;;;9.57;7.13;;;20.10;99.90;;;;;;5055039;28;20354;-81
2023/08/22 05:23:46;;;;;;;10.10;7.18;;;20.20;99.90;;;;;;5055410;28;20075;-82
2023/08/22 05:26:13;;;;;;;16.48;8.00;;;20.60;99.90;;;;;;5055578;28;20016;-81
2023/08/22 05:28:39;;;;;;;14.50;7.90;;;20.10;99.90;;;;;;5054404;28;20033;-81
2023/08/22 05:31:04;;;;;;;12.82;8.00;;;20.10;99.90;;;;;;5055503;28;20112;-82
2023/08/22 05:33:30;;;;;;;12.65;9.13;;;20.70;99.90;;;;;;5054951;28;20037;-81
2023/08/22 05:35:55;;;;;;;13.32;9.45;;;20.20;99.90;;;;;;5054643;28;20029;-81
2023/08/22 05:38:21;;;;;;;12.82;9.30;;;20.10;99.90;;;;;;5055466;28;20029;-82
2023/08/22 05:40:46;;;;;;;16.00;9.98;;;20.20;99.90;;;;;;5055120;28;20447;-82
2023/08/22 05:43:12;;;;;;;15.88;10.48;;;20.10;99.90;;;;;;5054398;28;20075;-81
2023/08/22 05:45:37;;;;;;;16.58;8.38;;;20.40;99.90;;;;;;5055085;28;20017;-81
2023/08/22 05:48:03;;;;;;;12.52;8.95;;;20.20;99.90;;;;;;5055046;28;20029;-81
2023/08/22 05:50:29;;;;;;;12.35;7.82;;;20.20;99.90;;;;;;5054387;28;20033;-81
2023/08/22 05:52:54;;;;;;;15.77;9.50;;;20.20;99.90;;;;;;5054848;28;20025;-81
2023/08/22 05:55:20;;;;;;;16.98;8.80;;;20.20;99.90;;;;;;5055790;28;20017;-80
2023/08/22 05:57:46;;;;;;;14.38;8.30;;;20.20;99.90;;;;;;5053933;28;20032;-81
2023/08/22 06:00:12;;;;;;;11.63;7.63;;;20.20;99.90;;;;;;5054934;28;20025;-81
2023/08/22 06:02:38;;;;;;;10.18;7.25;;;20.20;99.90;;;;;;5054479;28;20025;-81
2023/08/22 06:05:06;;;;;;;13.07;6.32;;;20.20;99.90;;;;;;5054465;28;20036;-81
2023/08/22 06:07:32;;;;;;;11.73;6.80;;;20.20;99.90;;;;;;5054542;28;20033;-81
2023/08/22 06:09:58;;;;;;;7.53;6.32;;;20.20;99.90;;;;;;5054019;28;20078;-81
2023/08/22 06:12:24;;;;;;;12.55;7.60;;;20.20;99.90;;;;;;5054087;28;20032;-81
2023/08/22 06:14:50;;;;;;;11.88;7.55;;;20.20;99.90;;;;;;5054236;28;20385;-81
2023/08/22 06:17:16;;;;;;;11.07;7.75;;;20.20;99.90;;;;;;5054313;28;20036;-81
2023/08/22 06:19:41;;;;;;;13.35;7.38;;;20.30;99.90;;;;;;5054176;28;20025;-81
2023/08/22 06:22:07;;;;;;;10.60;8.50;;;20.20;99.90;;;;;;5055169;28;20048;-79
2023/08/22 06:24:32;;;;;;;11.90;7.78;;;20.20;99.90;;;;;;5054112;28;20102;-80
2023/08/22 06:26:58;;;;;;;9.07;7.28;;;20.20;99.90;;;;;;5054464;28;20024;-80
2023/08/22 06:29:23;;;;;;;8.05;7.07;;;20.20;99.90;;;;;;5063828;28;20025;-79
2023/08/22 06:31:49;;;;;;;9.02;6.53;;;20.20;99.90;;;;;;5062997;28;20048;-80
2023/08/22 06:34:14;;;;;;;11.68;6.43;;;20.20;99.90;;;;;;5055264;28;20495;-80
2023/08/22 06:36:40;;;;;;;8.02;6.47;;;20.40;99.90;;;;;;5053925;28;20048;-80
2023/08/22 06:39:06;;;;;;;10.23;7.18;;;20.10;99.90;;;;;;5053575;28;20033;-80
2023/08/22 06:41:32;;;;;;;9.63;6.88;;;20.10;99.90;;;;;;5053995;28;20025;-80
2023/08/22 06:43:57;;;;;;;12.93;7.00;;;20.40;99.90;;;;;;5054264;28;20553;-80
2023/08/22 06:46:23;;;;;;;8.18;5.95;;;20.60;99.90;;;;;;5054163;28;20029;-81
2023/08/22 06:48:49;;;;;;;8.30;6.22;;;20.20;99.90;;;;;;5053916;28;20419;-81
2023/08/22 06:51:15;;;;;;;10.60;7.22;;;20.20;99.90;;;;;;5053987;28;20027;-81
2023/08/22 06:53:40;;;;;;;13.63;6.68;;;20.20;99.90;;;;;;5052801;28;20479;-81
2023/08/22 06:56:06;;;;;;;11.43;6.18;;;20.20;99.90;;;;;;5053581;28;20037;-81
2023/08/22 06:58:31;;;;;;;11.60;6.63;;;20.60;99.90;;;;;;5053795;28;20029;-81
2023/08/22 07:00:58;;;;;;;11.63;6.70;;;20.30;99.90;;;;;;5053204;28;20025;-81
2023/08/22 07:03:23;;;;;;;9.23;6.18;;;20.30;99.90;;;;;;5053922;28;20358;-81
2023/08/22 07:05:53;;;;;;;6.70;5.60;;;20.30;99.90;;;;;;5053524;28;20028;-81
2023/08/22 07:08:19;;;;;;;9.90;5.57;;;20.30;99.90;;;;;;5053033;28;20025;-82
2023/08/22 07:10:45;;;;;;;17.65;5.47;;;20.50;99.90;;;;;;5053062;28;20309;-81
2023/08/22 07:13:11;;;;;;;7.18;5.22;;;20.30;99.90;;;;;;5053188;28;20025;-81
2023/08/22 07:15:36;;;;;;;10.07;5.10;;;20.30;99.90;;;;;;5053540;28;20040;-81
2023/08/22 07:18:02;;;;;;;8.15;5.22;;;20.30;99.90;;;;;;5053599;28;20132;-81
2023/08/22 07:20:28;;;;;;;8.60;6.43;;;20.30;99.90;;;;;;5052695;28;20086;-81
2023/08/22 07:22:53;;;;;;;8.50;5.57;;;20.30;99.90;;;;;;5053170;28;20111;-81
2023/08/22 07:25:19;;;;;;;12.20;5.95;;;20.40;99.90;;;;;;5053156;28;20385;-81
2023/08/22 07:27:45;;;;;;;10.02;5.90;;;20.40;99.90;;;;;;5052630;28;20075;-80
2023/08/22 07:30:11;;;;;;;8.77;6.03;;;20.50;99.90;;;;;;5053414;28;20025;-80
2023/08/22 07:32:36;;;;;;;11.50;6.70;;;20.50;99.90;;;;;;5052810;28;20054;-80
2023/08/22 07:35:02;;;;;;;9.00;5.50;;;20.50;99.90;;;;;;5052456;28;20408;-80
2023/08/22 07:37:28;;;;;;;8.98;6.45;;;20.50;99.90;;;;;;5053283;28;20047;-81
2023/08/22 07:39:54;;;;;;;8.38;5.63;;;20.60;99.90;;;;;;5052635;28;20017;-80
2023/08/22 07:42:20;;;;;;;13.82;6.63;;;20.70;99.90;;;;;;5052415;28;20025;-82
2023/08/22 07:44:45;;;;;;;8.52;5.60;;;20.50;99.90;;;;;;5052620;28;20033;-82
2023/08/22 07:47:11;;;;;;;7.95;6.60;;;20.50;99.90;;;;;;5053185;28;20029;-82
2023/08/22 07:49:36;;;;;;;9.48;6.97;;;20.50;99.90;;;;;;5051706;28;20387;-81
2023/08/22 07:52:02;;;;;;;7.72;5.95;;;20.50;99.90;;;;;;5052790;28;20032;-81
2023/08/22 07:54:29;;;;;;;7.25;5.60;;;20.40;99.90;;;;;;5052527;28;20084;-82
2023/08/22 07:56:54;;;;;;;10.90;5.63;;;20.70;99.90;;;;;;5051914;28;20052;-81
2023/08/22 07:59:20;;;;;;;8.98;6.13;;;20.40;99.90;;;;;;5052861;28;20025;-80
2023/08/22 08:01:46;;;;;;;18.05;6.45;;;20.40;99.90;;;;;;5052297;28;20024;-82
2023/08/22 08:04:11;;;;;;;8.45;6.30;;;20.40;99.90;;;;;;5051779;28;20493;-82
2023/08/22 08:06:37;;;;;;;11.02;6.57;;;20.40;99.90;;;;;;5052175;28;20025;-82
2023/08/22 08:09:04;;;;;;;14.68;6.20;;;20.80;99.90;;;;;;5052431;28;20025;-82
2023/08/22 08:11:30;;;;;;;13.25;6.55;;;20.50;99.90;;;;;;5051902;28;20025;-80
2023/08/22 08:13:56;;;;;;;11.10;6.05;;;20.50;99.90;;;;;;5062768;28;20132;-81
2023/08/22 08:16:22;;;;;;;13.07;6.72;;;20.50;99.90;;;;;;5058413;28;20048;-82
2023/08/22 08:18:49;;;;;;;10.07;5.68;;;20.50;99.90;;;;;;5051860;28;20052;-81
2023/08/22 08:21:15;;;;;;;16.35;6.72;;;20.50;99.90;;;;;;5052560;28;20017;-82
2023/08/22 08:23:41;;;;;;;16.77;6.53;;;20.60;99.90;;;;;;5051613;28;20365;-82
2023/08/22 08:26:07;;;;;;;12.38;6.57;;;20.50;99.90;;;;;;5052456;28;20086;-81
2023/08/22 08:28:33;;;;;;;11.80;6.82;;;20.50;99.90;;;;;;5051633;28;20025;-81
2023/08/22 08:30:59;;;;;;;10.30;6.22;;;20.50;99.90;;;;;;5051482;28;20056;-82
2023/08/22 08:33:24;;;;;;;11.05;6.82;;;20.60;99.90;;;;;;5051859;28;20112;-82
2023/08/22 08:35:50;;;;;;;8.95;6.85;;;20.60;99.90;;;;;;5050958;28;20477;-82
2023/08/22 08:38:15;;;;;;;12.93;7.10;;;20.70;99.90;;;;;;5051090;28;20028;-81
2023/08/22 08:40:42;;;;;;;12.40;6.47;;;20.60;99.90;;;;;;5051898;28;20025;-82
2023/08/22 08:43:08;;;;;;;9.80;6.05;;;20.90;99.90;;;;;;5051926;28;20017;-82
2023/08/22 08:45:35;;;;;;;6.38;5.68;;;20.80;99.90;;;;;;5051219;28;20025;-83
2023/08/22 08:48:02;;;;;;;11.02;6.57;;;21.00;99.90;;;;;;5051972;28;20028;-83
2023/08/22 08:50:30;;;;;;;23.08;6.18;;;20.80;99.90;;;;;;5051906;28;20056;-82
2023/08/22 08:52:56;;;;;;;9.45;6.68;;;20.80;99.90;;;;;;5050830;28;20511;-81
2023/08/22 08:55:21;;;;;;;13.05;6.85;;;20.80;99.90;;;;;;5052058;28;20037;-82
2023/08/22 08:57:47;;;;;;;12.68;6.07;;;21.00;99.90;;;;;;5051479;28;20024;-82
2023/08/22 09:00:15;;;;;;;17.52;8.18;;;20.90;99.90;;;;;;5051159;28;20032;-82
2023/08/22 09:02:40;;;;;;;13.00;8.02;;;20.90;99.90;;;;;;5051488;28;20024;-82
2023/08/22 09:05:06;;;;;;;7.72;6.88;;;20.90;99.90;;;;;;5051417;28;20033;-82
2023/08/22 09:07:33;;;;;;;12.07;8.13;;;20.90;99.90;;;;;;5050689;28;20033;-82
2023/08/22 09:10:01;;;;;;;12.93;8.50;;;21.00;99.90;;;;;;5051455;28;20052;-82
2023/08/22 09:12:37;;;;;;;14.07;8.80;;;21.00;99.90;;;;;;5051953;28;20025;-82
2023/08/22 09:15:09;;;;;;;14.25;8.50;;;21.00;99.90;;;;;;5050879;28;20029;-82
2023/08/22 09:17:34;;;;;;;10.32;7.22;;;21.00;99.90;;;;;;5051290;28;20025;-82
2023/08/22 09:20:09;;;;;;;16.20;9.38;;;21.60;99.90;;;;;;5050586;28;20135;-82
2023/08/22 09:22:35;;;;;;;12.82;9.05;;;21.10;99.90;;;;;;5051510;28;20021;-82
2023/08/22 09:25:04;;;;;;;14.82;8.90;;;21.20;99.90;;;;;;5051301;28;20137;-82
2023/08/22 09:27:29;;;;;;;12.15;8.57;;;21.20;99.90;;;;;;5050516;28;20104;-81
2023/08/22 09:30:04;;;;;;;10.85;8.13;;;21.20;99.90;;;;;;5051680;28;20084;-82
2023/08/22 09:32:30;;;;;;;12.10;8.55;;;21.20;99.90;;;;;;5051058;28;20048;-81
2023/08/22 09:34:58;;;;;;;12.00;8.20;;;21.30;99.90;;;;;;5050743;28;20048;-81
2023/08/22 09:37:34;;;;;;;11.73;7.45;;;21.30;99.90;;;;;;5051515;28;20024;-81
2023/08/22 09:40:03;;;;;;;12.68;8.20;;;21.20;99.90;;;;;;5051291;28;20033;-82
2023/08/22 09:42:29;;;;;;;11.38;7.72;;;21.40;99.90;;;;;;5050510;28;20108;-81
2023/08/22 09:44:56;;;;;;;9.98;7.20;;;21.40;99.90;;;;;;5051032;28;20021;-81
2023/08/22 09:47:28;;;;;;;8.93;7.30;;;21.40;99.90;;;;;;5052885;28;20029;-81
2023/08/22 09:49:58;;;;;;;7.32;5.22;;;21.40;99.90;;;;;;5054487;28;20029;-81
2023/08/22 09:52:24;;;;;;;10.70;5.57;;;21.50;99.90;;;;;;5055464;28;20017;-81
2023/08/22 09:54:51;;;;;;;10.85;6.57;;;21.50;99.90;;;;;;5054707;28;20398;-81
2023/08/22 09:57:18;;;;;;;10.98;6.65;;;21.60;99.90;;;;;;5054642;28;20469;-81
2023/08/22 09:59:45;;;;;;;10.75;5.72;;;21.50;99.90;;;;;;5059899;28;20197;-81
2023/08/22 10:02:11;;;;;;;13.50;6.95;;;21.60;99.90;;;;;;5055202;28;20032;-81
2023/08/22 10:04:37;;;;;;;8.75;4.93;;;22.50;99.90;;;;;;5054988;28;20574;-81
2023/08/22 10:07:03;;;;;;;9.02;5.10;;;21.60;99.90;;;;;;5054945;28;20116;-82
2023/08/22 10:09:29;;;;;;;6.72;4.07;;;21.60;99.90;;;;;;5053683;28;20111;-81
2023/08/22 10:11:59;;;;;;;10.35;4.00;;;21.50;99.90;;;;;;5054606;28;20380;-81
2023/08/22 10:14:48;;;;;;;7.68;3.70;;;21.60;99.90;;;;;;5054743;28;20033;-81
2023/08/22 10:17:14;;;;;;;5.22;2.47;;;21.60;99.90;;;;;;5054064;28;20025;-82
2023/08/22 10:19:44;;;;;;;7.70;2.42;;;21.60;99.90;;;;;;5054146;28;20021;-82
2023/08/22 10:22:11;;;;;;;9.65;3.50;;;21.60;99.90;;;;;;5054350;28;20029;-81
2023/08/22 10:24:37;;;;;;;3.65;2.30;;;21.60;99.90;;;;;;5053289;28;20435;-81
2023/08/22 10:27:04;;;;;;;4.40;2.17;;;21.60;99.90;;;;;;5054372;28;20037;-81
2023/08/22 10:29:55;;;;;;;4.90;2.50;;;21.70;99.90;;;;;;5054265;28;20072;-81
2023/08/22 10:32:22;;;;;;;7.18;1.80;;;21.10;99.90;;;;;;5052779;28;20041;-81
2023/08/22 10:34:56;;;;;;;5.63;1.40;;;21.70;99.90;;;;;;5053709;28;20091;-81
2023/08/22 10:37:26;;;;;;;6.88;2.05;;;21.70;99.90;;;;;;5054103;28;20108;-81
2023/08/22 10:39:55;;;;;;;5.53;1.50;;;22.00;99.90;;;;;;5053918;28;20025;-82
2023/08/22 10:42:23;;;;;;;7.13;2.08;;;21.70;99.90;;;;;;5054110;28;20021;-82
2023/08/22 10:44:58;;;;;;;5.47;1.33;;;21.80;99.90;;;;;;5053327;28;20037;-82
2023/08/22 10:47:30;;;;;;;5.78;1.30;;;21.80;99.90;;;;;;5054178;28;20036;-81
2023/08/22 10:49:57;;;;;;;5.35;1.48;;;21.80;99.90;;;;;;5054015;28;20028;-81
2023/08/22 10:52:32;;;;;;;7.35;1.52;;;21.80;99.90;;;;;;5053717;28;20438;-82
2023/08/22 10:55:00;;;;;;;2.38;1.30;;;22.20;99.90;;;;;;5053967;28;20036;-81
2023/08/22 10:57:27;;;;;;;4.10;1.00;;;21.80;99.90;;;;;;5054443;28;20071;-82
2023/08/22 10:59:59;;;;;;;5.05;1.00;;;21.80;99.90;;;;;;5052042;28;20056;-81
2023/08/22 11:02:29;;;;;;;3.60;1.02;;;21.80;99.90;;;;;;5053837;28;20120;-81
2023/08/22 11:05:02;;;;;;;4.20;1.23;;;21.80;99.90;;;;;;5053917;28;20036;-80
2023/08/22 11:07:30;;;;;;;3.45;1.25;;;21.90;99.90;;;;;;5053452;28;20028;-81
2023/08/22 11:09:56;;;;;;;3.78;1.30;;;21.80;99.90;;;;;;5053550;28;20036;-81
2023/08/22 11:12:24;;;;;;;5.05;1.52;;;21.90;99.90;;;;;;5052867;28;20032;-80
2023/08/22 11:14:51;;;;;;;2.40;1.20;;;21.90;99.90;;;;;;5053869;28;20068;-81
2023/08/22 11:17:19;;;;;;;3.58;0.93;;;21.90;99.90;;;;;;5054106;28;20033;-81
2023/08/22 11:19:45;;;;;;;5.30;2.17;;;21.90;99.90;;;;;;5052690;28;20104;-81
2023/08/22 11:22:11;;;;;;;3.72;1.10;;;22.20;99.90;;;;;;5053456;28;20025;-81
2023/08/22 11:24:47;;;;;;;2.83;1.25;;;21.90;99.90;;;;;;5052903;28;20029;-81
2023/08/22 11:27:13;;;;;;;2.85;1.38;;;22.00;99.90;;;;;;5053383;28;20025;-81
2023/08/22 11:29:52;;;;;;;8.75;1.60;;;22.20;99.90;;;;;;5052826;28;20051;-80
2023/08/22 11:32:26;;;;;;;5.38;1.45;;;22.00;99.90;;;;;;5053269;28;20048;-81
2023/08/22 11:35:06;;;;;;;3.40;1.42;;;21.90;99.90;;;;;;5052023;28;20090;-81
2023/08/22 11:37:34;;;;;;;5.43;1.65;;;22.00;99.90;;;;;;5052991;28;20037;-81
2023/08/22 11:40:01;;;;;;;5.45;1.45;;;21.90;99.90;;;;;;5053098;28;20075;-81
2023/08/22 11:42:30;;;;;;;6.20;2.28;;;22.20;99.90;;;;;;5057758;28;20094;-80
2023/08/22 11:45:05;;;;;;;3.33;1.20;;;22.00;99.90;;;;;;5063682;28;20033;-81
2023/08/22 11:47:45;;;;;;;6.47;1.52;;;22.00;99.90;;;;;;5052669;28;20051;-81
2023/08/22 11:50:13;;;;;;;6.10;1.77;;;22.10;99.90;;;;;;5053205;28;20028;-81
2023/08/22 11:52:40;;;;;;;4.32;2.13;;;22.10;99.90;;;;;;5052568;28;20478;-81
2023/08/22 11:55:07;;;;;;;4.75;1.98;;;22.10;99.90;;;;;;5051835;28;20468;-80
2023/08/22 11:57:35;;;;;;;4.22;1.20;;;22.10;99.90;;;;;;5052680;28;20119;-81
2023/08/22 12:00:01;;;;;;;2.83;1.23;;;22.20;99.90;;;;;;5052892;28;20033;-81
2023/08/22 12:02:27;;;;;;;5.57;1.67;;;22.10;99.90;;;;;;5051876;28;20021;-81
2023/08/22 12:04:55;;;;;;;3.60;1.33;;;22.20;99.90;;;;;;5052296;28;20029;-81
2023/08/22 12:07:22;;;;;;;4.28;1.27;;;22.20;99.90;;;;;;5052742;28;20036;-81
2023/08/22 12:10:03;;;;;;;3.13;1.33;;;22.10;99.90;;;;;;5051441;28;20111;-81
2023/08/22 12:12:30;;;;;;;5.30;1.30;;;22.80;99.90;;;;;;5052001;28;20155;-80
2023/08/22 12:14:56;;;;;;;3.38;1.00;;;22.00;99.90;;;;;;5051959;28;20056;-82
2023/08/22 12:17:22;;;;;;;6.50;1.45;;;22.20;99.90;;;;;;5051607;28;20032;-80
2023/08/22 12:19:48;;;;;;;4.82;1.20;;;22.10;99.90;;;;;;5051903;28;20024;-80
2023/08/22 12:22:13;;;;;;;3.30;1.10;;;22.40;99.90;;;;;;5051991;28;20489;-81
2023/08/22 12:24:39;;;;;;;5.57;1.80;;;22.10;99.90;;;;;;5051291;28;20120;-80
2023/08/22 12:27:04;;;;;;;4.00;1.25;;;22.10;99.90;;;;;;5051939;28;20110;-82
2023/08/22 12:29:30;;;;;;;3.85;1.60;;;22.10;99.90;;;;;;5051530;28;20068;-82
2023/08/22 12:31:56;;;;;;;2.97;1.50;;;22.10;99.90;;;;;;5051105;28;20053;-82
2023/08/22 12:34:22;;;;;;;4.30;1.50;;;22.20;99.90;;;;;;5051957;28;20116;-81
2023/08/22 12:36:47;;;;;;;9.77;1.77;;;22.20;99.90;;;;;;5050903;28;20029;-82
2023/08/22 12:39:13;;;;;;;5.75;1.80;;;22.20;99.90;;;;;;5051947;28;20029;-82
2023/08/22 12:41:39;;;;;;;4.35;1.55;;;22.30;99.90;;;;;;5051349;28;20021;-81